AirNav   BOSE ProFlight Aviation Headset
 
 438 users online  

73C Lancaster Municipal Airport
Lancaster, Wisconsin, USA

GOING TO LANCASTER?


FAA INFORMATION EFFECTIVE 24 MAY 2018

Location

FAA Identifier: 73C
Lat/Long: 42-46-57.1100N / 090-40-51.9050W
42-46.951833N / 090-40.865083W
42.7825306 / -90.6810847
(estimated)
Elevation: 1014.7 ft. / 309 m (estimated)
Variation: 01E (1985)
From city: 4 miles S of LANCASTER, WI
Time zone: UTC -5 (UTC -6 during Standard Time)
Zip code: 53813

Airport Operations

Airport use: Open to the public
Activation date: 04/1967
Control tower: no
ARTCC: CHICAGO CENTER
FSS: GREEN BAY FLIGHT SERVICE STATION
NOTAMs facility: GRB (NOTAM-D service available)
Attendance: UNATNDD
Pattern altitude: 1814.7 ft. MSL
Wind indicator: lighted
Segmented circle: no
Lights: SS-SR
Beacon: white-green (lighted land airport)
Operates sunset to sunrise.

Airport Communications

CTAF/UNICOM: 122.8
WX AWOS-3 at PVB (12 nm SE): 120.575 (608-348-3637)

Nearby radio navigation aids

VOR radial/distance  VOR name  Freq  Var
DBQr359/22.9DUBUQUE VORTAC115.8004E
LNRr218/39.0LONE ROCK VOR/DME112.8000E

Airport Services

Fuel available: 100LL MOGAS
24 HR SELF SVC FUEL AVBL WITH CREDIT CARD.
Parking: hangars and tiedowns

Runway Information

Runway 18/36

Dimensions: 3300 x 60 ft. / 1006 x 18 m
Surface: asphalt, in fair condition
Weight bearing capacity: 
Single wheel: 13.0
Runway edge lights: low intensity
RUNWAY 18  RUNWAY 36
Latitude: 42-47.223333N42-46.680333N
Longitude: 090-40.874000W090-40.856167W
Elevation: 1014.7 ft.1007.8 ft.
Traffic pattern: leftleft
Runway heading: 178 magnetic, 179 true358 magnetic, 359 true
Markings: nonprecision, in fair conditionnonprecision, in fair condition
Runway end identifier lights: nono
Obstructions: 38 ft. tree, 1360 ft. from runway, 220 ft. right of centerline, 30:1 slope to clear
ROAD 50 FT FM THR.
none
RD 93 FT FM THR.

Airport Ownership and Management from official FAA records

Ownership: Publicly-owned
Owner: CITY OF LANCASTER
CITY HALL, 206 S MADISON STREET
LANCASTER, WI 53813
Phone 608-723-5196
Manager: JERRY CARROLL
206 S MADISON STREET
LANCASTER, WI 53813
Phone 608-723-7543

Airport Operational Statistics

Aircraft based on the field: 12
Single engine airplanes: 10
Multi engine airplanes: 2
    
Aircraft operations: avg 23/day *
52% local general aviation
48% transient general aviation
* for 12-month period ending 02 June 2015

Additional Remarks

ULTRALIGHT & SKYDIVING ACTIVITY ON & INVOF ARPT.
OCNL VEHICLES/PEOPLE CROSSING RY TO REACH HGR AREA ON EAST SIDE OF RY.
RY 18/36 35 FT PLINE PARALLELS W SIDE 365 FT FM CNTRLN.

Instrument Procedures

There are no published instrument procedures at 73C.

Some nearby airports with instrument procedures:

KPVB - Platteville Municipal Airport (12 nm SE)
KMRJ - Iowa County Airport (21 nm E)
KOVS - Boscobel Airport (23 nm N)
KDBQ - Dubuque Regional Airport (23 nm S)
KPDC - Prairie du Chien Municipal Airport (24 nm NW)
 
Loc | Ops | Rwys | IFR | FBO | Links
Com | Nav | Svcs | Stats | Notes

AirNav Hotels Sweepstakes
 
Area around 73C (Lancaster Municipal Airport)
 
Road maps at: MapQuest Bing Google
 
Aerial photo
WARNING: Photo may not be current or correct
Aerial photo of 73C (Lancaster Municipal Airport)
Photo by Mathieu Labs.
Photo taken 05-May-2009

Do you have a better or more recent aerial photo of Lancaster Municipal Airport that you would like to share? If so, please send us your photo.

 
Sectional chart

 
Airport distance calculator
Flying to Lancaster Municipal Airport? Find the distance to fly.

From to 73C

Sunrise and sunset
Times for 18-Jun-2018
 Local
(UTC-5)
 Zulu
(UTC)
Morning civil twilight04:5009:50
Sunrise05:2510:25
Sunset20:4301:43
Evening civil twilight21:1802:18

Current date and time
Zulu (UTC)  18-Jun-2018 10:21:04
Local (UTC-5)  18-Jun-2018 05:21:04
 
METAR
KPVB 
12nm SE 
180955Z AUTO 22009KT 10SM SCT120 26/23 A2994 RMK AO1 T02570232
KMRJ 
21nm E 
180955Z AUTO 22008KT 10SM SCT050 26/23 A2993 RMK AO2
KOVS 
22nm N 
180953Z AUTO 24008G22KT 7SM -RA SCT060 OVC070 26/22 A2990 RMK AO2 RAB33 SLP118 P0004 T02610222 TSNO
KDBQ 
23nm S 
180953Z AUTO 23008KT 10SM CLR 24/22 A2994 RMK AO2 SLP128 T02440217
TAF
KDBQ 
23nm S 
180520Z 1806/1906 20009KT P6SM BKN120 FM180800 21009KT P6SM BKN100 WS020/24040KT FM181300 24010KT P6SM BKN070 FM181800 21010KT P6SM BKN040 FM182100 21008KT P6SM VCTS BKN050CB
NOTAMs
Click for the latest NOTAMs
NOTAMs are issued by the DoD/FAA and will open in a separate window not controlled by AirNav.

 

 
 

FBO, Fuel Providers, and Aircraft Ground Support

  
 Business Name 
 
 Contact 
 
 Services / Description 
 
Fuel Prices
 
Comments
  
Lancaster Aviation 608-723-4246
no information available

If you are affiliated with Lancaster Aviation and would like to show here your services, contact info, web link, logo, and more, click here
100LL Mogas
SS $3.90 $3.80 
 Updated 12-Jun-2018
 
   1 read write
SS=Self service
Update Fuel Prices
 

Would you like to see your business listed on this page?

 If your business provides an interesting product or service to pilots, flight crews, aircraft, or users of the Lancaster Municipal Airport, you should consider listing it here.  To start the listing process, click on the button below
 
Add a business
 

Other Pages about Lancaster Municipal Airport

Page from the Wisconsin airport directory (PDF)
 
Update a link
 
Copyright © AirNav, LLC. All rights reserved. Privacy Policy  Contact